DLH113 EDDM-LLBG
Flight info
| Callsign | DLH113 |
|---|---|
| Flight time | 2h 57m |
| Altitude | 37000 |
| Route | ROTAX3S ROTAX L603 LATLO DCT OBEDI/N0472F370 DCT KLAGY DCT TIVNU DCT MEDUX UM867 KOGAT DCT ERANA DCT TSL DCT MES UL609 RDS DCT VANZA DCT PIKOG L609 ZUKKO |
| Aircraft | A346/H-SDE2E3FGHIJ3J4J5M1RWXY/LB1D1 |
Departure
| Time | 2026-05-07 15:51 |
|---|---|
| Airport | Munich Airport (EDDM) |
Arrival
| Time | 2026-05-07 18:48 |
|---|---|
| Airport | Ben Gurion International Airport (LLBG) |
| Time | Latitude | Longitude | Altitude | Speed | Heading |
|---|---|---|---|---|---|
| 2026-05-07 15:14 | 48.35469 | 11.79733 | 1477 ft | 0 kts | 83° |
| 2026-05-07 15:34 | 48.35467 | 11.79705 | 1477 ft | 3 kts | 83° |
| 2026-05-07 15:35 | 48.35464 | 11.79674 | 1482 ft | 3 kts | 83° |
| 2026-05-07 15:35 | 48.35462 | 11.79649 | 1477 ft | 3 kts | 84° |
| 2026-05-07 15:35 | 48.35462 | 11.79621 | 1480 ft | 3 kts | 99° |
| 2026-05-07 15:35 | 48.35466 | 11.79599 | 1477 ft | 3 kts | 124° |
| 2026-05-07 15:36 | 48.35473 | 11.79588 | 1477 ft | 3 kts | 158° |
| 2026-05-07 15:36 | 48.35488 | 11.79584 | 1484 ft | 3 kts | 173° |
| 2026-05-07 15:36 | 48.35508 | 11.79581 | 1477 ft | 3 kts | 173° |
| 2026-05-07 15:36 | 48.35519 | 11.79579 | 1477 ft | 0 kts | 173° |
| 2026-05-07 15:41 | 48.35512 | 11.79578 | 1484 ft | 2 kts | 186° |
| 2026-05-07 15:41 | 48.35498 | 11.79579 | 1490 ft | 4 kts | 173° |
| 2026-05-07 15:41 | 48.35456 | 11.79587 | 1479 ft | 8 kts | 172° |
| 2026-05-07 15:41 | 48.35380 | 11.79603 | 1486 ft | 14 kts | 173° |
| 2026-05-07 15:42 | 48.35278 | 11.79623 | 1490 ft | 15 kts | 173° |
| 2026-05-07 15:42 | 48.35169 | 11.79641 | 1487 ft | 16 kts | 174° |
| 2026-05-07 15:42 | 48.35048 | 11.79661 | 1485 ft | 18 kts | 174° |
| 2026-05-07 15:42 | 48.34988 | 11.79671 | 1480 ft | 0 kts | 174° |
| 2026-05-07 15:43 | 48.34980 | 11.79672 | 1479 ft | 3 kts | 174° |
| 2026-05-07 15:44 | 48.34936 | 11.79679 | 1489 ft | 9 kts | 173° |
| 2026-05-07 15:44 | 48.34849 | 11.79695 | 1490 ft | 14 kts | 173° |
| 2026-05-07 15:44 | 48.34746 | 11.79710 | 1489 ft | 15 kts | 182° |
| 2026-05-07 15:44 | 48.34661 | 11.79618 | 1477 ft | 16 kts | 232° |
| 2026-05-07 15:45 | 48.34647 | 11.79591 | 1482 ft | 0 kts | 232° |
| 2026-05-07 15:45 | 48.34646 | 11.79591 | 1480 ft | 0 kts | 232° |
| 2026-05-07 15:45 | 48.34645 | 11.79587 | 1480 ft | 0 kts | 233° |
| 2026-05-07 15:46 | 48.34629 | 11.79556 | 1481 ft | 3 kts | 233° |
| 2026-05-07 15:46 | 48.34623 | 11.79542 | 1484 ft | 0 kts | 233° |
| 2026-05-07 15:47 | 48.34622 | 11.79542 | 1484 ft | 0 kts | 233° |
| 2026-05-07 15:47 | 48.34621 | 11.79539 | 1485 ft | 1 kts | 233° |
| 2026-05-07 15:47 | 48.34610 | 11.79517 | 1479 ft | 4 kts | 233° |
| 2026-05-07 15:48 | 48.34587 | 11.79469 | 1479 ft | 7 kts | 233° |
| 2026-05-07 15:48 | 48.34546 | 11.79385 | 1481 ft | 12 kts | 233° |
| 2026-05-07 15:48 | 48.34491 | 11.79272 | 1481 ft | 14 kts | 233° |
| 2026-05-07 15:48 | 48.34429 | 11.79148 | 1480 ft | 14 kts | 233° |
| 2026-05-07 15:49 | 48.34387 | 11.79064 | 1490 ft | 9 kts | 237° |
| 2026-05-07 15:49 | 48.34364 | 11.78960 | 1479 ft | 12 kts | 262° |
| 2026-05-07 15:49 | 48.34362 | 11.78928 | 1481 ft | 0 kts | 263° |
| 2026-05-07 15:49 | 48.34361 | 11.78915 | 1483 ft | 7 kts | 263° |
| 2026-05-07 15:50 | 48.34338 | 11.78612 | 1483 ft | 58 kts | 263° |
| 2026-05-07 15:50 | 48.34268 | 11.77694 | 1489 ft | 115 kts | 263° |
| 2026-05-07 15:50 | 48.34155 | 11.76276 | 1486 ft | 161 kts | 263° |
| 2026-05-07 15:50 | 48.34012 | 11.74443 | 1672 ft | 185 kts | 266° |
| 2026-05-07 15:51 | 48.33790 | 11.72489 | 2096 ft | 194 kts | 258° |
| 2026-05-07 15:51 | 48.33188 | 11.70630 | 2650 ft | 204 kts | 226° |
| 2026-05-07 15:51 | 48.31904 | 11.69841 | 3345 ft | 204 kts | 184° |
| 2026-05-07 15:51 | 48.30445 | 11.70076 | 3720 ft | 218 kts | 174° |
| 2026-05-07 15:52 | 48.28916 | 11.70525 | 4044 ft | 231 kts | 163° |
| 2026-05-07 15:52 | 48.27476 | 11.71676 | 4506 ft | 242 kts | 147° |
| 2026-05-07 15:52 | 48.26070 | 11.73227 | 4807 ft | 260 kts | 144° |
| 2026-05-07 15:52 | 48.24571 | 11.74894 | 5170 ft | 276 kts | 145° |
| 2026-05-07 15:53 | 48.22986 | 11.76588 | 5790 ft | 281 kts | 147° |
| 2026-05-07 15:53 | 48.21373 | 11.78264 | 6558 ft | 283 kts | 148° |
| 2026-05-07 15:53 | 48.19732 | 11.79938 | 7327 ft | 285 kts | 148° |
| 2026-05-07 15:53 | 48.18152 | 11.81757 | 8082 ft | 289 kts | 140° |
| 2026-05-07 15:54 | 48.16744 | 11.83935 | 8831 ft | 293 kts | 133° |
| 2026-05-07 15:54 | 48.15432 | 11.86299 | 9602 ft | 296 kts | 131° |
| 2026-05-07 15:54 | 48.14128 | 11.88709 | 10298 ft | 300 kts | 132° |
| 2026-05-07 15:54 | 48.12780 | 11.91183 | 10768 ft | 314 kts | 132° |
| 2026-05-07 15:55 | 48.11352 | 11.93783 | 11108 ft | 332 kts | 132° |
| 2026-05-07 15:55 | 48.09845 | 11.96514 | 11433 ft | 349 kts | 132° |
| 2026-05-07 15:55 | 48.08292 | 11.99434 | 11746 ft | 368 kts | 128° |
| 2026-05-07 15:55 | 48.06902 | 12.02771 | 12061 ft | 387 kts | 120° |
| 2026-05-07 15:56 | 48.05782 | 12.06512 | 12508 ft | 399 kts | 112° |
| 2026-05-07 15:56 | 48.04794 | 12.10428 | 13238 ft | 404 kts | 111° |
| 2026-05-07 15:56 | 48.03820 | 12.14388 | 13994 ft | 407 kts | 111° |
| 2026-05-07 15:56 | 48.02829 | 12.18389 | 14626 ft | 412 kts | 112° |
| 2026-05-07 15:57 | 48.01817 | 12.22420 | 15269 ft | 416 kts | 112° |
| 2026-05-07 15:57 | 48.00788 | 12.26484 | 15899 ft | 420 kts | 112° |
| 2026-05-07 15:57 | 47.99748 | 12.30568 | 16523 ft | 423 kts | 112° |
| 2026-05-07 15:57 | 47.98652 | 12.34671 | 17117 ft | 427 kts | 116° |
| 2026-05-07 15:58 | 47.97175 | 12.38522 | 17710 ft | 428 kts | 127° |
| 2026-05-07 15:58 | 47.95283 | 12.41946 | 18304 ft | 428 kts | 136° |
| 2026-05-07 15:58 | 47.93127 | 12.45029 | 18833 ft | 430 kts | 139° |
| 2026-05-07 15:58 | 47.90911 | 12.48055 | 19337 ft | 434 kts | 140° |
| 2026-05-07 15:59 | 47.88646 | 12.51141 | 19848 ft | 437 kts | 139° |
| 2026-05-07 15:59 | 47.86404 | 12.54223 | 20345 ft | 440 kts | 139° |
| 2026-05-07 15:59 | 47.84154 | 12.57338 | 20825 ft | 443 kts | 139° |
| 2026-05-07 15:59 | 47.81904 | 12.60500 | 21282 ft | 446 kts | 137° |
| 2026-05-07 16:00 | 47.79702 | 12.63787 | 21734 ft | 449 kts | 136° |
| 2026-05-07 16:00 | 47.77492 | 12.67094 | 22190 ft | 452 kts | 136° |
| 2026-05-07 16:00 | 47.75263 | 12.70424 | 22692 ft | 456 kts | 136° |
| 2026-05-07 16:00 | 47.73020 | 12.73769 | 23235 ft | 458 kts | 136° |
| 2026-05-07 16:01 | 47.70760 | 12.77132 | 23782 ft | 460 kts | 136° |
| 2026-05-07 16:01 | 47.68490 | 12.80508 | 24230 ft | 463 kts | 136° |
| 2026-05-07 16:01 | 47.66210 | 12.83899 | 24696 ft | 465 kts | 136° |
| 2026-05-07 16:01 | 47.63916 | 12.87304 | 25179 ft | 467 kts | 136° |
| 2026-05-07 16:02 | 47.61609 | 12.90722 | 25615 ft | 469 kts | 137° |
| 2026-05-07 16:02 | 47.59292 | 12.94148 | 26061 ft | 472 kts | 137° |
| 2026-05-07 16:02 | 47.56957 | 12.97593 | 26498 ft | 474 kts | 137° |
| 2026-05-07 16:02 | 47.54610 | 13.01052 | 26937 ft | 476 kts | 137° |
| 2026-05-07 16:03 | 47.52290 | 13.04465 | 27363 ft | 478 kts | 137° |
| 2026-05-07 16:03 | 47.49911 | 13.07967 | 27836 ft | 479 kts | 138° |
| 2026-05-07 16:03 | 47.47555 | 13.11426 | 28484 ft | 475 kts | 138° |
| 2026-05-07 16:03 | 47.45212 | 13.14858 | 29198 ft | 471 kts | 138° |
| 2026-05-07 16:04 | 47.42886 | 13.18258 | 29801 ft | 470 kts | 138° |
| 2026-05-07 16:04 | 47.40557 | 13.21659 | 30313 ft | 470 kts | 138° |
| 2026-05-07 16:04 | 47.38237 | 13.25042 | 30755 ft | 469 kts | 139° |
| 2026-05-07 16:04 | 47.35904 | 13.28440 | 31127 ft | 470 kts | 139° |
| 2026-05-07 16:05 | 47.33598 | 13.31886 | 31479 ft | 473 kts | 136° |
| 2026-05-07 16:05 | 47.31404 | 13.35513 | 31837 ft | 475 kts | 133° |
| 2026-05-07 16:05 | 47.29311 | 13.39295 | 32198 ft | 476 kts | 132° |
| 2026-05-07 16:05 | 47.27228 | 13.43096 | 32606 ft | 476 kts | 132° |
| 2026-05-07 16:06 | 47.25146 | 13.46890 | 32963 ft | 477 kts | 133° |
| 2026-05-07 16:06 | 47.23054 | 13.50692 | 33303 ft | 478 kts | 133° |
| 2026-05-07 16:06 | 47.20950 | 13.54506 | 33643 ft | 480 kts | 133° |
| 2026-05-07 16:06 | 47.18843 | 13.58324 | 33965 ft | 481 kts | 133° |
| 2026-05-07 16:07 | 47.16720 | 13.62159 | 34203 ft | 484 kts | 133° |
| 2026-05-07 16:07 | 47.14590 | 13.65997 | 34480 ft | 485 kts | 134° |
| 2026-05-07 16:07 | 47.12461 | 13.69831 | 34836 ft | 484 kts | 134° |
| 2026-05-07 16:07 | 47.10333 | 13.73657 | 35163 ft | 483 kts | 134° |
| 2026-05-07 16:08 | 47.08210 | 13.77471 | 35468 ft | 482 kts | 134° |
| 2026-05-07 16:08 | 47.06081 | 13.81288 | 35728 ft | 483 kts | 134° |
| 2026-05-07 16:08 | 47.03949 | 13.85105 | 35953 ft | 484 kts | 134° |
| 2026-05-07 16:08 | 47.01809 | 13.88930 | 36156 ft | 486 kts | 134° |
| 2026-05-07 16:09 | 46.99663 | 13.92762 | 36355 ft | 487 kts | 134° |
| 2026-05-07 16:09 | 46.97511 | 13.96600 | 36538 ft | 488 kts | 134° |
| 2026-05-07 16:09 | 46.95345 | 14.00458 | 36731 ft | 489 kts | 134° |
| 2026-05-07 16:09 | 46.93178 | 14.04314 | 36863 ft | 490 kts | 134° |
| 2026-05-07 16:10 | 46.91001 | 14.08186 | 36926 ft | 492 kts | 134° |
| 2026-05-07 16:10 | 46.86637 | 14.15920 | 36940 ft | 493 kts | 134° |
| 2026-05-07 16:11 | 46.82267 | 14.23641 | 36936 ft | 493 kts | 134° |
| 2026-05-07 16:11 | 46.77920 | 14.31302 | 36940 ft | 493 kts | 134° |
| 2026-05-07 16:12 | 46.73538 | 14.39002 | 36929 ft | 492 kts | 134° |
| 2026-05-07 16:12 | 46.69163 | 14.46671 | 36940 ft | 491 kts | 134° |
| 2026-05-07 16:13 | 46.64789 | 14.54316 | 36929 ft | 491 kts | 135° |
| 2026-05-07 16:13 | 46.60406 | 14.61951 | 36933 ft | 492 kts | 135° |
| 2026-05-07 16:14 | 46.56007 | 14.69588 | 36922 ft | 492 kts | 135° |
| 2026-05-07 16:14 | 46.51605 | 14.77173 | 36913 ft | 489 kts | 136° |
| 2026-05-07 16:15 | 46.46971 | 14.84389 | 36931 ft | 488 kts | 139° |
| 2026-05-07 16:15 | 46.42302 | 14.91545 | 36932 ft | 487 kts | 139° |
| 2026-05-07 16:16 | 46.37637 | 14.98679 | 36929 ft | 488 kts | 139° |
| 2026-05-07 16:16 | 46.32944 | 15.05836 | 36922 ft | 488 kts | 139° |
| 2026-05-07 16:17 | 46.28257 | 15.12958 | 36939 ft | 488 kts | 139° |
| 2026-05-07 16:17 | 46.23568 | 15.20065 | 36941 ft | 488 kts | 139° |
| 2026-05-07 16:18 | 46.18874 | 15.27163 | 36951 ft | 488 kts | 139° |
| 2026-05-07 16:18 | 46.14180 | 15.34245 | 36940 ft | 488 kts | 139° |
| 2026-05-07 16:19 | 46.09487 | 15.41313 | 36958 ft | 488 kts | 140° |
| 2026-05-07 16:19 | 46.04781 | 15.48370 | 36968 ft | 488 kts | 140° |
| 2026-05-07 16:20 | 46.00071 | 15.55415 | 36972 ft | 488 kts | 140° |
| 2026-05-07 16:20 | 45.95390 | 15.62401 | 36974 ft | 488 kts | 140° |
| 2026-05-07 16:21 | 45.90676 | 15.69420 | 36975 ft | 488 kts | 140° |
| 2026-05-07 16:21 | 45.85956 | 15.76428 | 36962 ft | 488 kts | 140° |
| 2026-05-07 16:22 | 45.81233 | 15.83422 | 36974 ft | 488 kts | 140° |
| 2026-05-07 16:22 | 45.76503 | 15.90409 | 36974 ft | 488 kts | 140° |
| 2026-05-07 16:23 | 45.71777 | 15.97373 | 37001 ft | 486 kts | 140° |
| 2026-05-07 16:23 | 45.67047 | 16.04323 | 36991 ft | 486 kts | 140° |
| 2026-05-07 16:24 | 45.62327 | 16.11242 | 36989 ft | 486 kts | 140° |
| 2026-05-07 16:24 | 45.57596 | 16.18158 | 36996 ft | 486 kts | 140° |
| 2026-05-07 16:25 | 45.52869 | 16.25050 | 36989 ft | 485 kts | 140° |
| 2026-05-07 16:25 | 45.48150 | 16.31914 | 36991 ft | 484 kts | 140° |
| 2026-05-07 16:26 | 45.43426 | 16.38769 | 36991 ft | 484 kts | 140° |
| 2026-05-07 16:26 | 45.39499 | 16.44452 | 36997 ft | 484 kts | 140° |
| 2026-05-07 16:27 | 45.34770 | 16.51279 | 36991 ft | 484 kts | 140° |
| 2026-05-07 16:27 | 45.30038 | 16.58095 | 37005 ft | 484 kts | 140° |
| 2026-05-07 16:28 | 45.25301 | 16.64902 | 37007 ft | 484 kts | 140° |
| 2026-05-07 16:28 | 45.20561 | 16.71694 | 37012 ft | 484 kts | 141° |
| 2026-05-07 16:29 | 45.15817 | 16.78474 | 36998 ft | 484 kts | 140° |
| 2026-05-07 16:29 | 45.11069 | 16.85242 | 36997 ft | 484 kts | 140° |
| 2026-05-07 16:30 | 45.06307 | 16.92014 | 37012 ft | 486 kts | 140° |
| 2026-05-07 16:30 | 45.01536 | 16.98780 | 37017 ft | 486 kts | 141° |
| 2026-05-07 16:31 | 44.96750 | 17.05549 | 37004 ft | 486 kts | 140° |
| 2026-05-07 16:31 | 44.91973 | 17.12291 | 37023 ft | 485 kts | 140° |
| 2026-05-07 16:32 | 44.87200 | 17.19018 | 37024 ft | 485 kts | 140° |
| 2026-05-07 16:32 | 44.82444 | 17.25694 | 37038 ft | 486 kts | 140° |
| 2026-05-07 16:33 | 44.77642 | 17.32416 | 36999 ft | 487 kts | 140° |
| 2026-05-07 16:33 | 44.72843 | 17.39115 | 37025 ft | 485 kts | 140° |
| 2026-05-07 16:34 | 44.68047 | 17.45798 | 37029 ft | 485 kts | 140° |
| 2026-05-07 16:34 | 44.63247 | 17.52470 | 37031 ft | 485 kts | 141° |
| 2026-05-07 16:35 | 44.58449 | 17.59121 | 37017 ft | 485 kts | 140° |
| 2026-05-07 16:35 | 44.53627 | 17.65779 | 37021 ft | 487 kts | 140° |
| 2026-05-07 16:36 | 44.48798 | 17.72442 | 37027 ft | 487 kts | 140° |
| 2026-05-07 16:36 | 44.43963 | 17.79097 | 37034 ft | 487 kts | 140° |
| 2026-05-07 16:37 | 44.39129 | 17.85732 | 37030 ft | 487 kts | 140° |
| 2026-05-07 16:37 | 44.34288 | 17.92356 | 37024 ft | 487 kts | 140° |
| 2026-05-07 16:38 | 44.29426 | 17.98999 | 37035 ft | 489 kts | 140° |
| 2026-05-07 16:38 | 44.24548 | 18.05646 | 37039 ft | 489 kts | 140° |
| 2026-05-07 16:39 | 44.19703 | 18.12232 | 37036 ft | 489 kts | 140° |
| 2026-05-07 16:39 | 44.14825 | 18.18839 | 37036 ft | 489 kts | 140° |
| 2026-05-07 16:40 | 44.09946 | 18.25441 | 37031 ft | 488 kts | 140° |
| 2026-05-07 16:40 | 44.05058 | 18.32038 | 37045 ft | 491 kts | 140° |
| 2026-05-07 16:41 | 44.00147 | 18.38648 | 37049 ft | 491 kts | 140° |
| 2026-05-07 16:41 | 43.95244 | 18.45233 | 37052 ft | 491 kts | 141° |
| 2026-05-07 16:42 | 43.90328 | 18.51816 | 37052 ft | 490 kts | 141° |
| 2026-05-07 16:42 | 43.85411 | 18.58386 | 37051 ft | 491 kts | 141° |
| 2026-05-07 16:43 | 43.80487 | 18.64955 | 37024 ft | 492 kts | 141° |
| 2026-05-07 16:43 | 43.75541 | 18.71530 | 37043 ft | 493 kts | 141° |
| 2026-05-07 16:44 | 43.70594 | 18.78090 | 37062 ft | 493 kts | 141° |
| 2026-05-07 16:44 | 43.65622 | 18.84668 | 37042 ft | 493 kts | 141° |
| 2026-05-07 16:45 | 43.60665 | 18.91212 | 37038 ft | 493 kts | 141° |
| 2026-05-07 16:45 | 43.55688 | 18.97772 | 37042 ft | 495 kts | 141° |
| 2026-05-07 16:46 | 43.50684 | 19.04344 | 37043 ft | 496 kts | 142° |
| 2026-05-07 16:46 | 43.45683 | 19.10897 | 37048 ft | 496 kts | 142° |
| 2026-05-07 16:47 | 43.40677 | 19.17436 | 37033 ft | 496 kts | 141° |
| 2026-05-07 16:47 | 43.35670 | 19.23964 | 37046 ft | 496 kts | 141° |
| 2026-05-07 16:48 | 43.30654 | 19.30507 | 37048 ft | 498 kts | 142° |
| 2026-05-07 16:48 | 43.25616 | 19.37043 | 37047 ft | 498 kts | 142° |
| 2026-05-07 16:49 | 43.20569 | 19.43576 | 37053 ft | 499 kts | 142° |
| 2026-05-07 16:49 | 43.15512 | 19.50096 | 37052 ft | 498 kts | 141° |
| 2026-05-07 16:50 | 43.10510 | 19.56548 | 37054 ft | 497 kts | 141° |
| 2026-05-07 16:50 | 43.05462 | 19.63042 | 37063 ft | 498 kts | 141° |
| 2026-05-07 16:51 | 43.00406 | 19.69529 | 37064 ft | 498 kts | 141° |
| 2026-05-07 16:51 | 42.95351 | 19.75998 | 37066 ft | 498 kts | 141° |
| 2026-05-07 16:52 | 42.90288 | 19.82458 | 37071 ft | 497 kts | 141° |
| 2026-05-07 16:52 | 42.85224 | 19.88905 | 37041 ft | 498 kts | 141° |
| 2026-05-07 16:53 | 42.80150 | 19.95349 | 37078 ft | 499 kts | 141° |
| 2026-05-07 16:53 | 42.75126 | 20.01914 | 37088 ft | 501 kts | 137° |
| 2026-05-07 16:54 | 42.70552 | 20.09094 | 37083 ft | 503 kts | 133° |
| 2026-05-07 16:54 | 42.66107 | 20.16463 | 37069 ft | 503 kts | 133° |
| 2026-05-07 16:55 | 42.61656 | 20.23812 | 37086 ft | 503 kts | 133° |
| 2026-05-07 16:55 | 42.57202 | 20.31140 | 37075 ft | 505 kts | 134° |
| 2026-05-07 16:56 | 42.52701 | 20.38511 | 37089 ft | 508 kts | 134° |
| 2026-05-07 16:56 | 42.45927 | 20.49573 | 37084 ft | 508 kts | 134° |
| 2026-05-07 16:57 | 42.41405 | 20.56933 | 37094 ft | 508 kts | 134° |
| 2026-05-07 16:57 | 42.36883 | 20.64280 | 37101 ft | 507 kts | 134° |
| 2026-05-07 16:58 | 42.32360 | 20.71608 | 37101 ft | 507 kts | 134° |
| 2026-05-07 16:58 | 42.27813 | 20.78961 | 37101 ft | 513 kts | 134° |
| 2026-05-07 16:59 | 42.23216 | 20.86362 | 37111 ft | 514 kts | 134° |
| 2026-05-07 16:59 | 42.18614 | 20.93757 | 37119 ft | 514 kts | 134° |
| 2026-05-07 17:00 | 42.13995 | 21.01164 | 37119 ft | 515 kts | 134° |
| 2026-05-07 17:00 | 42.09168 | 21.08256 | 37121 ft | 510 kts | 141° |
| 2026-05-07 17:01 | 42.04046 | 21.14769 | 37110 ft | 510 kts | 141° |
| 2026-05-07 17:01 | 41.98854 | 21.21331 | 37111 ft | 515 kts | 142° |
| 2026-05-07 17:02 | 41.93620 | 21.27943 | 37122 ft | 516 kts | 142° |
| 2026-05-07 17:02 | 41.88387 | 21.34545 | 37113 ft | 516 kts | 142° |
| 2026-05-07 17:03 | 41.83155 | 21.41138 | 37125 ft | 516 kts | 142° |
| 2026-05-07 17:03 | 41.77915 | 21.47719 | 37129 ft | 517 kts | 142° |
| 2026-05-07 17:04 | 41.72613 | 21.54375 | 37230 ft | 526 kts | 142° |
| 2026-05-07 17:04 | 41.69929 | 21.57729 | 37333 ft | 529 kts | 142° |
| 2026-05-07 17:04 | 41.67231 | 21.61095 | 37488 ft | 531 kts | 143° |
| 2026-05-07 17:05 | 41.64524 | 21.64478 | 37659 ft | 533 kts | 143° |
| 2026-05-07 17:05 | 41.61806 | 21.67868 | 37869 ft | 534 kts | 143° |
| 2026-05-07 17:05 | 41.59089 | 21.71252 | 38076 ft | 534 kts | 143° |
| 2026-05-07 17:05 | 41.56367 | 21.74639 | 38307 ft | 534 kts | 143° |
| 2026-05-07 17:06 | 41.53646 | 21.78020 | 38490 ft | 535 kts | 143° |
| 2026-05-07 17:06 | 41.50912 | 21.81405 | 38671 ft | 535 kts | 143° |
| 2026-05-07 17:06 | 41.48186 | 21.84785 | 38828 ft | 536 kts | 143° |
| 2026-05-07 17:06 | 41.45440 | 21.88185 | 38911 ft | 539 kts | 143° |
| 2026-05-07 17:07 | 41.39940 | 21.94969 | 39035 ft | 544 kts | 143° |
| 2026-05-07 17:07 | 41.34394 | 22.01805 | 39122 ft | 543 kts | 143° |
| 2026-05-07 17:08 | 41.28842 | 22.08636 | 39130 ft | 543 kts | 143° |
| 2026-05-07 17:08 | 41.23286 | 22.15443 | 39109 ft | 543 kts | 143° |
| 2026-05-07 17:09 | 41.17687 | 22.22286 | 39134 ft | 549 kts | 144° |
| 2026-05-07 17:09 | 41.11862 | 22.28822 | 39136 ft | 547 kts | 147° |
| 2026-05-07 17:10 | 41.05934 | 22.35180 | 39140 ft | 548 kts | 148° |
| 2026-05-07 17:10 | 41.00009 | 22.41519 | 39139 ft | 548 kts | 148° |
| 2026-05-07 17:11 | 40.94067 | 22.47872 | 39125 ft | 552 kts | 147° |
| 2026-05-07 17:11 | 40.88084 | 22.54256 | 39134 ft | 552 kts | 147° |
| 2026-05-07 17:12 | 40.82099 | 22.60639 | 39130 ft | 552 kts | 147° |
| 2026-05-07 17:12 | 40.76109 | 22.67009 | 39121 ft | 552 kts | 147° |
| 2026-05-07 17:13 | 40.71133 | 22.72285 | 39103 ft | 553 kts | 147° |
| 2026-05-07 17:13 | 40.65101 | 22.78663 | 39117 ft | 557 kts | 147° |
| 2026-05-07 17:14 | 40.59065 | 22.85030 | 39113 ft | 555 kts | 147° |
| 2026-05-07 17:14 | 40.53036 | 22.91382 | 39112 ft | 555 kts | 147° |
| 2026-05-07 17:15 | 40.47027 | 22.97768 | 39107 ft | 557 kts | 144° |
| 2026-05-07 17:15 | 40.41439 | 23.04859 | 39115 ft | 561 kts | 137° |
| 2026-05-07 17:16 | 40.36082 | 23.12333 | 39132 ft | 561 kts | 137° |
| 2026-05-07 17:16 | 40.30783 | 23.19706 | 39112 ft | 552 kts | 137° |
| 2026-05-07 17:17 | 40.25497 | 23.27003 | 39128 ft | 552 kts | 137° |
| 2026-05-07 17:17 | 40.20236 | 23.34230 | 39129 ft | 552 kts | 137° |
| 2026-05-07 17:18 | 40.14883 | 23.41559 | 39107 ft | 555 kts | 137° |
| 2026-05-07 17:18 | 40.09559 | 23.48828 | 39122 ft | 556 kts | 137° |
| 2026-05-07 17:19 | 40.04206 | 23.56131 | 39116 ft | 556 kts | 137° |
| 2026-05-07 17:19 | 39.98848 | 23.63422 | 39117 ft | 556 kts | 137° |
| 2026-05-07 17:20 | 39.93488 | 23.70695 | 39120 ft | 556 kts | 137° |
| 2026-05-07 17:20 | 39.88119 | 23.77958 | 39110 ft | 555 kts | 137° |
| 2026-05-07 17:21 | 39.82752 | 23.85201 | 39117 ft | 556 kts | 137° |
| 2026-05-07 17:21 | 39.77377 | 23.92444 | 39119 ft | 556 kts | 137° |
| 2026-05-07 17:22 | 39.71997 | 23.99676 | 39122 ft | 556 kts | 137° |
| 2026-05-07 17:22 | 39.66622 | 24.06882 | 39121 ft | 556 kts | 137° |
| 2026-05-07 17:23 | 39.61249 | 24.14066 | 39120 ft | 553 kts | 137° |
| 2026-05-07 17:23 | 39.55870 | 24.21237 | 39113 ft | 556 kts | 137° |
| 2026-05-07 17:24 | 39.50459 | 24.28440 | 39118 ft | 558 kts | 137° |
| 2026-05-07 17:24 | 39.45041 | 24.35637 | 39119 ft | 558 kts | 137° |
| 2026-05-07 17:25 | 39.39620 | 24.42818 | 39121 ft | 557 kts | 137° |
| 2026-05-07 17:25 | 39.34207 | 24.49972 | 39119 ft | 556 kts | 137° |
| 2026-05-07 17:26 | 39.28796 | 24.57106 | 39107 ft | 557 kts | 137° |
| 2026-05-07 17:26 | 39.23351 | 24.64265 | 39117 ft | 559 kts | 137° |
| 2026-05-07 17:27 | 39.17895 | 24.71427 | 39118 ft | 559 kts | 137° |
| 2026-05-07 17:27 | 39.12434 | 24.78578 | 39123 ft | 559 kts | 137° |
| 2026-05-07 17:28 | 39.06968 | 24.85716 | 39120 ft | 560 kts | 137° |
| 2026-05-07 17:28 | 39.01496 | 24.92847 | 39124 ft | 560 kts | 137° |
| 2026-05-07 17:29 | 38.95987 | 25.00002 | 39113 ft | 564 kts | 137° |
| 2026-05-07 17:29 | 38.90475 | 25.07153 | 39127 ft | 562 kts | 137° |
| 2026-05-07 17:30 | 38.84970 | 25.14279 | 39127 ft | 562 kts | 137° |
| 2026-05-07 17:30 | 38.79455 | 25.21398 | 39127 ft | 562 kts | 137° |
| 2026-05-07 17:31 | 38.73939 | 25.28500 | 39128 ft | 562 kts | 137° |
| 2026-05-07 17:31 | 38.68443 | 25.35557 | 39123 ft | 563 kts | 137° |
| 2026-05-07 17:32 | 38.62905 | 25.42656 | 39129 ft | 564 kts | 136° |
| 2026-05-07 17:32 | 38.57358 | 25.49752 | 39130 ft | 564 kts | 137° |
| 2026-05-07 17:33 | 38.51808 | 25.56835 | 39136 ft | 564 kts | 137° |
| 2026-05-07 17:33 | 38.46244 | 25.63916 | 39136 ft | 564 kts | 137° |
| 2026-05-07 17:34 | 38.40702 | 25.70954 | 39125 ft | 560 kts | 137° |
| 2026-05-07 17:34 | 38.35139 | 25.77992 | 39135 ft | 564 kts | 136° |
| 2026-05-07 17:35 | 38.29556 | 25.85049 | 39138 ft | 565 kts | 136° |
| 2026-05-07 17:35 | 38.23907 | 25.92019 | 39137 ft | 565 kts | 140° |
| 2026-05-07 17:36 | 38.18004 | 25.98595 | 39148 ft | 562 kts | 141° |
| 2026-05-07 17:36 | 38.12110 | 26.05077 | 39141 ft | 559 kts | 141° |
| 2026-05-07 17:37 | 38.06210 | 26.11581 | 39135 ft | 564 kts | 141° |
| 2026-05-07 17:37 | 38.00281 | 26.18132 | 39142 ft | 565 kts | 141° |
| 2026-05-07 17:38 | 37.94325 | 26.24687 | 39142 ft | 565 kts | 141° |
| 2026-05-07 17:38 | 37.88400 | 26.31189 | 39149 ft | 560 kts | 141° |
| 2026-05-07 17:39 | 37.82514 | 26.37628 | 39142 ft | 559 kts | 141° |
| 2026-05-07 17:39 | 37.76596 | 26.44067 | 39140 ft | 564 kts | 141° |
| 2026-05-07 17:40 | 37.70637 | 26.50544 | 39144 ft | 565 kts | 141° |
| 2026-05-07 17:40 | 37.64678 | 26.57020 | 39161 ft | 565 kts | 141° |
| 2026-05-07 17:41 | 37.58805 | 26.63407 | 39145 ft | 558 kts | 141° |
| 2026-05-07 17:41 | 37.52922 | 26.69779 | 39143 ft | 557 kts | 141° |
| 2026-05-07 17:42 | 37.47039 | 26.76131 | 39145 ft | 557 kts | 141° |
| 2026-05-07 17:42 | 37.41145 | 26.82483 | 39146 ft | 557 kts | 141° |
| 2026-05-07 17:43 | 37.35449 | 26.89108 | 39155 ft | 557 kts | 137° |
| 2026-05-07 17:43 | 37.29870 | 26.95811 | 39150 ft | 554 kts | 137° |
| 2026-05-07 17:44 | 37.24293 | 27.02484 | 39150 ft | 554 kts | 137° |
| 2026-05-07 17:44 | 37.18683 | 27.09159 | 39146 ft | 557 kts | 137° |
| 2026-05-07 17:45 | 37.13039 | 27.15861 | 39147 ft | 558 kts | 137° |
| 2026-05-07 17:45 | 37.07418 | 27.22524 | 39150 ft | 553 kts | 137° |
| 2026-05-07 17:46 | 37.01824 | 27.29137 | 39149 ft | 552 kts | 137° |
| 2026-05-07 17:46 | 36.96222 | 27.35744 | 39153 ft | 552 kts | 138° |
| 2026-05-07 17:47 | 36.90629 | 27.42323 | 39138 ft | 555 kts | 137° |
| 2026-05-07 17:47 | 36.84971 | 27.48968 | 39161 ft | 557 kts | 137° |
| 2026-05-07 17:48 | 36.79362 | 27.55545 | 39150 ft | 551 kts | 137° |
| 2026-05-07 17:48 | 36.73770 | 27.62086 | 39145 ft | 550 kts | 137° |
| 2026-05-07 17:49 | 36.68214 | 27.68571 | 39147 ft | 551 kts | 137° |
| 2026-05-07 17:49 | 36.62604 | 27.75104 | 39129 ft | 551 kts | 137° |
| 2026-05-07 17:50 | 36.56972 | 27.81644 | 39142 ft | 556 kts | 137° |
| 2026-05-07 17:50 | 36.51308 | 27.88216 | 39140 ft | 556 kts | 137° |
| 2026-05-07 17:51 | 36.45639 | 27.94777 | 39139 ft | 557 kts | 137° |
| 2026-05-07 17:51 | 36.39969 | 28.01321 | 39138 ft | 557 kts | 137° |
| 2026-05-07 17:52 | 36.34293 | 28.07868 | 39147 ft | 556 kts | 136° |
| 2026-05-07 17:52 | 36.28846 | 28.14593 | 39133 ft | 552 kts | 134° |
| 2026-05-07 17:53 | 36.23422 | 28.21375 | 39143 ft | 554 kts | 134° |
| 2026-05-07 17:53 | 36.18018 | 28.28107 | 39143 ft | 554 kts | 134° |
| 2026-05-07 17:54 | 36.12573 | 28.34862 | 39149 ft | 554 kts | 135° |
| 2026-05-07 17:54 | 36.07133 | 28.41598 | 39158 ft | 549 kts | 135° |
| 2026-05-07 17:55 | 36.01741 | 28.48253 | 39155 ft | 547 kts | 135° |
| 2026-05-07 17:55 | 35.96330 | 28.54912 | 39150 ft | 549 kts | 135° |
| 2026-05-07 17:56 | 35.90905 | 28.61582 | 39156 ft | 551 kts | 134° |
| 2026-05-07 17:56 | 35.85499 | 28.68221 | 39174 ft | 550 kts | 135° |
| 2026-05-07 17:57 | 35.81015 | 28.73717 | 39159 ft | 545 kts | 135° |
| 2026-05-07 17:57 | 35.74719 | 28.81410 | 39157 ft | 544 kts | 135° |
| 2026-05-07 17:58 | 35.69331 | 28.87980 | 39157 ft | 544 kts | 135° |
| 2026-05-07 17:58 | 35.63934 | 28.94543 | 39146 ft | 547 kts | 135° |
| 2026-05-07 17:59 | 35.59442 | 29.00004 | 39165 ft | 545 kts | 135° |
| 2026-05-07 17:59 | 35.53161 | 29.07622 | 39157 ft | 543 kts | 135° |
| 2026-05-07 18:00 | 35.48643 | 29.13088 | 39159 ft | 544 kts | 135° |
| 2026-05-07 18:00 | 35.43248 | 29.19604 | 39160 ft | 544 kts | 135° |
| 2026-05-07 18:01 | 35.37888 | 29.26065 | 39171 ft | 543 kts | 135° |
| 2026-05-07 18:01 | 35.32517 | 29.32524 | 39144 ft | 539 kts | 135° |
| 2026-05-07 18:02 | 35.24442 | 29.42215 | 39156 ft | 541 kts | 135° |
| 2026-05-07 18:03 | 35.19058 | 29.48662 | 39157 ft | 541 kts | 135° |
| 2026-05-07 18:03 | 35.13659 | 29.55113 | 39178 ft | 541 kts | 135° |
| 2026-05-07 18:04 | 35.08300 | 29.61503 | 39160 ft | 537 kts | 135° |
| 2026-05-07 18:04 | 35.02982 | 29.67831 | 39159 ft | 536 kts | 135° |
| 2026-05-07 18:05 | 34.97601 | 29.74219 | 39150 ft | 540 kts | 135° |
| 2026-05-07 18:05 | 34.92201 | 29.80620 | 39161 ft | 541 kts | 135° |
| 2026-05-07 18:06 | 34.86809 | 29.86995 | 39156 ft | 537 kts | 135° |
| 2026-05-07 18:06 | 34.81447 | 29.93324 | 39159 ft | 536 kts | 135° |
| 2026-05-07 18:07 | 34.76377 | 29.99957 | 39153 ft | 534 kts | 128° |
| 2026-05-07 18:07 | 34.72019 | 30.07267 | 39155 ft | 532 kts | 119° |
| 2026-05-07 18:08 | 34.68150 | 30.14927 | 39166 ft | 529 kts | 119° |
| 2026-05-07 18:08 | 34.64310 | 30.22545 | 39145 ft | 528 kts | 119° |
| 2026-05-07 18:09 | 34.60442 | 30.30149 | 39161 ft | 529 kts | 119° |
| 2026-05-07 18:09 | 34.56559 | 30.37749 | 39160 ft | 529 kts | 119° |
| 2026-05-07 18:10 | 34.52701 | 30.45283 | 39166 ft | 526 kts | 119° |
| 2026-05-07 18:10 | 34.48828 | 30.52820 | 39160 ft | 526 kts | 119° |
| 2026-05-07 18:11 | 34.44953 | 30.60345 | 39155 ft | 526 kts | 119° |
| 2026-05-07 18:11 | 34.41070 | 30.67872 | 39151 ft | 526 kts | 120° |
| 2026-05-07 18:12 | 34.37182 | 30.75391 | 39152 ft | 526 kts | 120° |
| 2026-05-07 18:12 | 34.33294 | 30.82896 | 39152 ft | 526 kts | 120° |
| 2026-05-07 18:13 | 34.29400 | 30.90397 | 39152 ft | 526 kts | 120° |
| 2026-05-07 18:13 | 34.25502 | 30.97890 | 39160 ft | 525 kts | 120° |
| 2026-05-07 18:14 | 34.21610 | 31.05359 | 39150 ft | 522 kts | 120° |
| 2026-05-07 18:14 | 34.17756 | 31.12733 | 39149 ft | 522 kts | 120° |
| 2026-05-07 18:15 | 34.13869 | 31.20156 | 39149 ft | 522 kts | 120° |
| 2026-05-07 18:15 | 34.09985 | 31.27562 | 39156 ft | 520 kts | 120° |
| 2026-05-07 18:16 | 34.06118 | 31.34918 | 39150 ft | 517 kts | 120° |
| 2026-05-07 18:16 | 34.02258 | 31.42243 | 39149 ft | 517 kts | 120° |
| 2026-05-07 18:17 | 33.98382 | 31.49586 | 39149 ft | 517 kts | 120° |
| 2026-05-07 18:17 | 33.94511 | 31.56907 | 39150 ft | 514 kts | 121° |
| 2026-05-07 18:18 | 33.90669 | 31.64155 | 39144 ft | 512 kts | 121° |
| 2026-05-07 18:18 | 33.86825 | 31.71394 | 39144 ft | 512 kts | 121° |
| 2026-05-07 18:19 | 33.83006 | 31.78570 | 39138 ft | 512 kts | 121° |
| 2026-05-07 18:19 | 33.79168 | 31.85771 | 39143 ft | 509 kts | 121° |
| 2026-05-07 18:20 | 33.75344 | 31.92928 | 39141 ft | 508 kts | 121° |
| 2026-05-07 18:20 | 33.71515 | 32.00081 | 39138 ft | 508 kts | 121° |
| 2026-05-07 18:21 | 33.67688 | 32.07216 | 39130 ft | 508 kts | 121° |
| 2026-05-07 18:21 | 33.63866 | 32.14334 | 39138 ft | 505 kts | 121° |
| 2026-05-07 18:22 | 33.60052 | 32.21416 | 39137 ft | 504 kts | 121° |
| 2026-05-07 18:22 | 33.56236 | 32.28487 | 39136 ft | 504 kts | 121° |
| 2026-05-07 18:23 | 33.52416 | 32.35554 | 39139 ft | 504 kts | 121° |
| 2026-05-07 18:23 | 33.48605 | 32.42594 | 39128 ft | 502 kts | 122° |
| 2026-05-07 18:24 | 33.44817 | 32.49572 | 39130 ft | 502 kts | 122° |
| 2026-05-07 18:24 | 33.41006 | 32.56581 | 39127 ft | 502 kts | 122° |
| 2026-05-07 18:25 | 33.37183 | 32.63601 | 39045 ft | 503 kts | 122° |
| 2026-05-07 18:25 | 33.35267 | 32.67117 | 38571 ft | 504 kts | 122° |
| 2026-05-07 18:25 | 33.33344 | 32.70635 | 37962 ft | 504 kts | 122° |
| 2026-05-07 18:25 | 33.31418 | 32.74153 | 37334 ft | 504 kts | 121° |
| 2026-05-07 18:26 | 33.29494 | 32.77666 | 36680 ft | 505 kts | 121° |
| 2026-05-07 18:26 | 33.27587 | 32.81144 | 35992 ft | 507 kts | 121° |
| 2026-05-07 18:26 | 33.25651 | 32.84675 | 35319 ft | 508 kts | 121° |
| 2026-05-07 18:26 | 33.23704 | 32.88222 | 34639 ft | 511 kts | 120° |
| 2026-05-07 18:27 | 33.21751 | 32.91777 | 33936 ft | 513 kts | 120° |
| 2026-05-07 18:27 | 33.19785 | 32.95357 | 33204 ft | 514 kts | 120° |
| 2026-05-07 18:27 | 33.17824 | 32.98930 | 32565 ft | 513 kts | 120° |
| 2026-05-07 18:27 | 33.16519 | 33.01306 | 32145 ft | 513 kts | 120° |
| 2026-05-07 18:28 | 33.13897 | 33.06069 | 31332 ft | 512 kts | 121° |
| 2026-05-07 18:28 | 33.11939 | 33.09620 | 30723 ft | 511 kts | 121° |
| 2026-05-07 18:28 | 33.09982 | 33.13164 | 30090 ft | 511 kts | 121° |
| 2026-05-07 18:28 | 33.08027 | 33.16701 | 29390 ft | 510 kts | 121° |
| 2026-05-07 18:29 | 33.06072 | 33.20238 | 28729 ft | 509 kts | 122° |
| 2026-05-07 18:29 | 33.04127 | 33.23748 | 28075 ft | 507 kts | 122° |
| 2026-05-07 18:29 | 33.02178 | 33.27260 | 27421 ft | 506 kts | 122° |
| 2026-05-07 18:29 | 33.00240 | 33.30747 | 26989 ft | 502 kts | 122° |
| 2026-05-07 18:30 | 32.98315 | 33.34210 | 26498 ft | 499 kts | 122° |
| 2026-05-07 18:30 | 32.96399 | 33.37653 | 26018 ft | 494 kts | 122° |
| 2026-05-07 18:30 | 32.94508 | 33.41047 | 25585 ft | 489 kts | 122° |
| 2026-05-07 18:30 | 32.92633 | 33.44410 | 25150 ft | 485 kts | 122° |
| 2026-05-07 18:31 | 32.90772 | 33.47744 | 24722 ft | 480 kts | 122° |
| 2026-05-07 18:31 | 32.88929 | 33.51044 | 24284 ft | 476 kts | 123° |
| 2026-05-07 18:31 | 32.87101 | 33.54315 | 23861 ft | 473 kts | 123° |
| 2026-05-07 18:31 | 32.85309 | 33.57519 | 23349 ft | 470 kts | 123° |
| 2026-05-07 18:32 | 32.83441 | 33.60693 | 22881 ft | 466 kts | 126° |
| 2026-05-07 18:32 | 32.81435 | 33.63702 | 22438 ft | 461 kts | 130° |
| 2026-05-07 18:32 | 32.79298 | 33.66528 | 22004 ft | 457 kts | 133° |
| 2026-05-07 18:32 | 32.77101 | 33.69246 | 21580 ft | 454 kts | 134° |
| 2026-05-07 18:33 | 32.74875 | 33.71975 | 21316 ft | 463 kts | 134° |
| 2026-05-07 18:33 | 32.72627 | 33.74729 | 21056 ft | 464 kts | 134° |
| 2026-05-07 18:33 | 32.70389 | 33.77474 | 20788 ft | 461 kts | 134° |
| 2026-05-07 18:33 | 32.68168 | 33.80200 | 20258 ft | 458 kts | 134° |
| 2026-05-07 18:34 | 32.65954 | 33.82919 | 19632 ft | 457 kts | 134° |
| 2026-05-07 18:34 | 32.63751 | 33.85625 | 19110 ft | 453 kts | 134° |
| 2026-05-07 18:34 | 32.61565 | 33.88306 | 18597 ft | 450 kts | 134° |
| 2026-05-07 18:34 | 32.59395 | 33.90968 | 18039 ft | 447 kts | 134° |
| 2026-05-07 18:35 | 32.57241 | 33.93611 | 17499 ft | 443 kts | 134° |
| 2026-05-07 18:35 | 32.55110 | 33.96235 | 16959 ft | 439 kts | 134° |
| 2026-05-07 18:35 | 32.53023 | 33.98843 | 16019 ft | 432 kts | 134° |
| 2026-05-07 18:35 | 32.50969 | 34.01419 | 15081 ft | 424 kts | 134° |
| 2026-05-07 18:36 | 32.48987 | 34.03900 | 14195 ft | 414 kts | 134° |
| 2026-05-07 18:36 | 32.47023 | 34.06351 | 13346 ft | 404 kts | 134° |
| 2026-05-07 18:36 | 32.45130 | 34.08710 | 12762 ft | 387 kts | 135° |
| 2026-05-07 18:36 | 32.43338 | 34.11028 | 12176 ft | 373 kts | 131° |
| 2026-05-07 18:37 | 32.41779 | 34.13404 | 11637 ft | 359 kts | 126° |
| 2026-05-07 18:37 | 32.40392 | 34.15804 | 11131 ft | 347 kts | 125° |
| 2026-05-07 18:37 | 32.39070 | 34.18129 | 10664 ft | 335 kts | 125° |
| 2026-05-07 18:37 | 32.37787 | 34.20388 | 10211 ft | 323 kts | 125° |
| 2026-05-07 18:38 | 32.36557 | 34.22544 | 9871 ft | 309 kts | 125° |
| 2026-05-07 18:38 | 32.35376 | 34.24615 | 9570 ft | 300 kts | 126° |
| 2026-05-07 18:38 | 32.34205 | 34.26653 | 9229 ft | 298 kts | 126° |
| 2026-05-07 18:38 | 32.33042 | 34.28681 | 8901 ft | 296 kts | 126° |
| 2026-05-07 18:39 | 32.31883 | 34.30690 | 8601 ft | 294 kts | 125° |
| 2026-05-07 18:39 | 32.30737 | 34.32678 | 8314 ft | 291 kts | 125° |
| 2026-05-07 18:39 | 32.29603 | 34.34647 | 8039 ft | 288 kts | 124° |
| 2026-05-07 18:39 | 32.28480 | 34.36597 | 7742 ft | 286 kts | 124° |
| 2026-05-07 18:40 | 32.27371 | 34.38518 | 7444 ft | 285 kts | 124° |
| 2026-05-07 18:40 | 32.26257 | 34.40448 | 7160 ft | 284 kts | 124° |
| 2026-05-07 18:40 | 32.25143 | 34.42377 | 6891 ft | 282 kts | 124° |
| 2026-05-07 18:40 | 32.24038 | 34.44290 | 6588 ft | 280 kts | 124° |
| 2026-05-07 18:41 | 32.22943 | 34.46185 | 6296 ft | 279 kts | 123° |
| 2026-05-07 18:41 | 32.21847 | 34.48074 | 5989 ft | 277 kts | 123° |
| 2026-05-07 18:41 | 32.20766 | 34.49947 | 5702 ft | 275 kts | 124° |
| 2026-05-07 18:41 | 32.19683 | 34.51809 | 5419 ft | 273 kts | 124° |
| 2026-05-07 18:42 | 32.18607 | 34.53656 | 5136 ft | 272 kts | 123° |
| 2026-05-07 18:42 | 32.17551 | 34.55471 | 5001 ft | 264 kts | 123° |
| 2026-05-07 18:42 | 32.16531 | 34.57247 | 4996 ft | 258 kts | 121° |
| 2026-05-07 18:42 | 32.15618 | 34.59034 | 4871 ft | 250 kts | 119° |
| 2026-05-07 18:43 | 32.14741 | 34.60792 | 4645 ft | 247 kts | 118° |
| 2026-05-07 18:43 | 32.13880 | 34.62528 | 4410 ft | 243 kts | 118° |
| 2026-05-07 18:43 | 32.13034 | 34.64234 | 4180 ft | 239 kts | 117° |
| 2026-05-07 18:43 | 32.12191 | 34.65914 | 3956 ft | 235 kts | 118° |
| 2026-05-07 18:44 | 32.11352 | 34.67544 | 3776 ft | 229 kts | 117° |
| 2026-05-07 18:44 | 32.10534 | 34.69123 | 3516 ft | 222 kts | 116° |
| 2026-05-07 18:44 | 32.09740 | 34.70650 | 3200 ft | 214 kts | 117° |
| 2026-05-07 18:44 | 32.08978 | 34.72110 | 2913 ft | 208 kts | 118° |
| 2026-05-07 18:45 | 32.08233 | 34.73536 | 2643 ft | 201 kts | 117° |
| 2026-05-07 18:45 | 32.07516 | 34.74914 | 2372 ft | 192 kts | 117° |
| 2026-05-07 18:45 | 32.06834 | 34.76227 | 2118 ft | 182 kts | 116° |
| 2026-05-07 18:45 | 32.06193 | 34.77464 | 1871 ft | 170 kts | 117° |
| 2026-05-07 18:46 | 32.05781 | 34.78260 | 1723 ft | 167 kts | 117° |
| 2026-05-07 18:46 | 32.05175 | 34.79431 | 1524 ft | 166 kts | 116° |
| 2026-05-07 18:46 | 32.04574 | 34.80592 | 1310 ft | 166 kts | 117° |
| 2026-05-07 18:46 | 32.03971 | 34.81754 | 1094 ft | 166 kts | 117° |
| 2026-05-07 18:47 | 32.03373 | 34.82912 | 875 ft | 164 kts | 118° |
| 2026-05-07 18:47 | 32.02786 | 34.84047 | 649 ft | 164 kts | 119° |
| 2026-05-07 18:47 | 32.02185 | 34.85211 | 398 ft | 164 kts | 120° |
| 2026-05-07 18:47 | 32.01588 | 34.86333 | 212 ft | 164 kts | 119° |
| 2026-05-07 18:48 | 32.01042 | 34.87423 | 126 ft | 129 kts | 122° |
| 2026-05-07 18:48 | 32.00688 | 34.88100 | 124 ft | 65 kts | 120° |
| 2026-05-07 18:48 | 32.00543 | 34.88386 | 125 ft | 32 kts | 122° |
| 2026-05-07 18:48 | 32.00397 | 34.88583 | 126 ft | 32 kts | 143° |
| 2026-05-07 18:49 | 32.00239 | 34.88691 | 125 ft | 19 kts | 153° |
| 2026-05-07 18:49 | 32.00188 | 34.88712 | 124 ft | 0 kts | 165° |
| 2026-05-07 18:50 | 32.00175 | 34.88714 | 127 ft | 4 kts | 178° |
| 2026-05-07 18:50 | 32.00135 | 34.88702 | 125 ft | 8 kts | 207° |
| 2026-05-07 18:51 | 32.00108 | 34.88634 | 125 ft | 12 kts | 278° |
| 2026-05-07 18:51 | 32.00149 | 34.88533 | 124 ft | 15 kts | 300° |
| 2026-05-07 18:51 | 32.00212 | 34.88412 | 125 ft | 19 kts | 301° |
| 2026-05-07 18:51 | 32.00288 | 34.88266 | 126 ft | 22 kts | 302° |
| 2026-05-07 18:52 | 32.00377 | 34.88102 | 125 ft | 25 kts | 302° |
| 2026-05-07 18:52 | 32.00470 | 34.87921 | 126 ft | 27 kts | 301° |
| 2026-05-07 18:52 | 32.00549 | 34.87767 | 124 ft | 18 kts | 298° |
| 2026-05-07 18:52 | 32.00542 | 34.87648 | 124 ft | 9 kts | 238° |
| 2026-05-07 18:53 | 32.00516 | 34.87599 | 124 ft | 0 kts | 237° |
| 2026-05-07 18:53 | 32.00511 | 34.87589 | 124 ft | 3 kts | 238° |
| 2026-05-07 18:53 | 32.00503 | 34.87557 | 124 ft | 5 kts | 266° |
| 2026-05-07 18:53 | 32.00506 | 34.87515 | 126 ft | 4 kts | 277° |
| 2026-05-07 18:54 | 32.00508 | 34.87504 | 125 ft | 0 kts | 277° |
| 2026-05-07 18:57 | 32.00508 | 34.87505 | 128 ft | 0 kts | 277° |
| 2026-05-07 18:59 | 32.00510 | 34.87505 | 129 ft | 0 kts | 272° |